METAR AND TAF INFORMATION
METAR FOR UACC
ADDS - METARS form results

(0545 UTC 25 November 2020)
Data provider http://aviationweather.gov/metar/data/
 
METAR text: UACC 250530Z 12004MPS CAVOK M14/M16 Q1033 R04/19//60 NOSIG RMK QFE743/0991
Conditions at: UACC (ASTANA KAZAKHSTA, KZ) observed 0530 UTC 25 November 2020
Temperature: -14.0°C ( 7°F)
Dewpoint: -16.0°C ( 3°F) [RH = 85%]
Pressure (altimeter): 30.50 inches Hg (1033.0 mb)
Winds: from the ESE (120 degrees) at 9 MPH (8 knots; 4.1 m/s)
Visibility: 6 or more miles (10+ km)
Ceiling: ceiling and visibility are OK
Clouds: unknown
Weather: no significant weather observed at this time

METAR text: UACC 250500Z 12003MPS CAVOK M15/M16 Q1033 R04/19//60 NOSIG RMK QFE743/0991
Conditions at: UACC (ASTANA KAZAKHSTA, KZ) observed 0500 UTC 25 November 2020
Temperature: -15.0°C ( 5°F)
Dewpoint: -16.0°C ( 3°F) [RH = 92%]
Pressure (altimeter): 30.50 inches Hg (1033.0 mb)
Winds: from the ESE (120 degrees) at 7 MPH (6 knots; 3.1 m/s)
Visibility: 6 or more miles (10+ km)
Ceiling: ceiling and visibility are OK
Clouds: unknown
Weather: no significant weather observed at this time

Forecast for: UACC (ASTANA KAZAKHSTA, KZ)
Text: TAF UACC 250500Z 2506/2606 13005MPS 9999 SCT011 BKN020 TXM08/2510Z TNM14/2602Z
Forecast period: 0600 UTC 25 November 2020 to 0600 UTC 26 November 2020
Forecast type: FROM: standard forecast or significant change
Winds: from the SE (130 degrees) at 12 MPH (10 knots; 5.1 m/s)
Visibility: 6 or more miles (10+ km)
Ceiling: 2000 feet AGL
Clouds: scattered clouds at 1100 feet AGL
broken clouds at 2000 feet AGL
Weather: no significant weather forecast for this period
Text: TEMPO 2518/2604 VRB02MPS 3100 -SN BR FEW005
Forecast period: 1800 UTC 25 November 2020 to 0400 UTC 26 November 2020
Forecast type: TEMPORARY: The following changes expected for less than half the time period
Winds: variable direction winds at 5 MPH (4 knots; 2.1 m/s)
Visibility: 1.93 miles (3.11 km)
Ceiling: at least 12,000 feet AGL
Clouds: few clouds at 500 feet AGL
Weather: -SN BR  (light snow, mist)

 AIRPORT MAP

 RUNWAY INFORMATION

 AIRPORT FREQUENCIES
Type APP Name APP Frequency 124.6 MHZ
Type ATIS Name ATIS Frequency 128.3 MHZ
Type RDR Name RADAR Frequency 124.6 MHZ
Type TWR Name TWR Frequency 118.7 MHZ

 AIRPORT NEAR NAVIGATION AIDS
Type NDB Name Astana Frequency 318 KHZ
Type VOR-DME Name Astana Frequency 114200 KHZ
Type NDB Name Astana Frequency 318 KHZ



2018 Air Astana Virtual Airline